Bowdon, United Kingdom
Current Conditions -  °F | °C
As of 2:20 AM on Tuesday 23 Dec 2014 (Local Time) from EGCC Reporting Station
Overcast Overcast  
Wind Chill: 52°   Ceiling: 3800
Heat Index: 52°   Visibility: 6mi
Dew Point: 46°   Wind: 23mph
Humidity: 82%   Direction: 230°SW
Pressure: 29.85"   Gusts: NA
Location:  53.38°N, 2.37°W
Report Text: EGCC 230220Z 23020KT 9999 FEW017 SCT022 OVC038 11/08 Q1011 NOSIG
Loading
Personal Weather Stations






























Interactive Weather Map New forecast layout! Learn more

10-Day Weather Forecast

Advertisements
Track Severe Weather on mobile